New Alexander, Ohio
Current Conditions -  °F | °C
As of 1:51 AM on Saturday 25 Oct 2014 (Local Time) from KCAK Reporting Station
Few Clouds Few Clouds  
Wind Chill: 48°   Ceiling: Unl
Heat Index: 48°   Visibility: 10mi
Dew Point: 38°   Wind: 3mph
Humidity: 68%   Direction: 220°SW
Pressure: 29.99"   Gusts: NA
Location:  40.7264°N, 81.025°W
Report Text: KCAK 250551Z 22003KT 10SM FEW047 09/03 A2999 RMK AO2 SLP156 T00890033 10139 20083 58004
Loading
Personal Weather Stations






























Interactive Weather Map
Tropical Storm Tracking
New forecast layout! Learn more

10-Day Weather Forecast

Advertisements
Track Severe Weather on mobile